createdAt,value
2017-03-26T00:00:50.207Z,7.67
2017-03-26T00:01:59.243Z,7.64
2017-03-26T00:03:08.132Z,7.56
2017-03-26T00:04:17.026Z,7.56
2017-03-26T00:05:26.240Z,7.52
2017-03-26T00:06:36.579Z,7.52
2017-03-26T00:07:45.781Z,7.63
2017-03-26T00:08:54.360Z,7.52
2017-03-26T00:10:02.934Z,7.54
2017-03-26T00:11:11.823Z,7.51
2017-03-26T00:12:20.645Z,7.51
2017-03-26T00:14:01.278Z,7.49
2017-03-26T00:15:09.853Z,7.56
2017-03-26T00:16:18.739Z,7.48
2017-03-26T00:17:27.625Z,7.48
2017-03-26T00:18:36.195Z,7.39
2017-03-26T00:19:45.084Z,7.36
2017-03-26T00:20:53.968Z,7.34
2017-03-26T00:22:02.909Z,7.31
2017-03-26T00:23:12.185Z,7.3
2017-03-26T00:24:20.761Z,7.22
2017-03-26T00:25:29.647Z,7.3
2017-03-26T00:26:38.218Z,7.21
2017-03-26T00:27:47.110Z,7.23
2017-03-26T00:28:56.203Z,7.33
2017-03-26T00:30:05.463Z,7.31
2017-03-26T00:31:14.661Z,7.16
2017-03-26T00:32:23.230Z,7.23
2017-03-26T00:33:31.901Z,7.19
2017-03-26T00:34:40.825Z,7.21
2017-03-26T00:35:50.061Z,7.16
2017-03-26T00:36:58.626Z,7.19
2017-03-26T00:38:07.197Z,7.15
2017-03-26T00:39:16.084Z,7.16
2017-03-26T00:40:24.976Z,7.21
2017-03-26T00:41:34.177Z,7.16
2017-03-26T00:42:43.070Z,7.16
2017-03-26T00:43:51.959Z,7.26
2017-03-26T00:45:00.534Z,7.22
2017-03-26T00:46:09.414Z,7.27
2017-03-26T00:47:18.308Z,7.22
2017-03-26T00:48:27.532Z,7.27
2017-03-26T00:49:36.441Z,7.18
2017-03-26T00:50:45.019Z,7.12
2017-03-26T00:51:54.234Z,7.11
2017-03-26T00:53:03.142Z,7.12
2017-03-26T00:54:12.681Z,7.15
2017-03-26T00:55:21.590Z,7.13
2017-03-26T00:56:30.531Z,7.11
2017-03-26T00:57:40.065Z,7
2017-03-26T00:58:48.965Z,7.05
2017-03-26T00:59:57.865Z,7.08
2017-03-26T01:01:07.077Z,7
2017-03-26T01:02:15.973Z,7.11
2017-03-26T01:03:24.894Z,7.01
2017-03-26T01:04:33.800Z,7.04
2017-03-26T01:05:42.690Z,7.11
2017-03-26T01:06:51.907Z,6.98
2017-03-26T01:08:01.439Z,7.03
2017-03-26T01:09:10.334Z,7
2017-03-26T01:10:19.340Z,6.98
2017-03-26T01:11:28.631Z,7
2017-03-26T01:12:37.539Z,7
2017-03-26T01:13:46.754Z,6.94
2017-03-26T01:14:55.656Z,6.98
2017-03-26T01:16:04.557Z,7.03
2017-03-26T01:17:13.455Z,6.97
2017-03-26T01:18:22.371Z,6.85
2017-03-26T01:19:31.272Z,6.91
2017-03-26T01:20:40.496Z,6.97
2017-03-26T01:21:49.082Z,6.88
2017-03-26T01:22:58.612Z,6.82
2017-03-26T01:24:07.197Z,6.86
2017-03-26T01:25:15.794Z,6.82
2017-03-26T01:26:24.716Z,6.82
2017-03-26T01:27:33.786Z,6.78
2017-03-26T01:28:42.687Z,6.79
2017-03-26T01:29:51.589Z,6.83
2017-03-26T01:31:00.818Z,6.9
2017-03-26T01:32:09.712Z,6.76
2017-03-26T01:33:18.733Z,6.78
2017-03-26T01:34:27.955Z,6.78
2017-03-26T01:35:37.479Z,6.78
2017-03-26T01:36:46.694Z,6.78
2017-03-26T01:37:55.280Z,6.72
2017-03-26T01:39:04.815Z,6.76
2017-03-26T01:40:13.402Z,6.72
2017-03-26T01:41:22.297Z,6.64
2017-03-26T01:42:31.831Z,6.64
2017-03-26T01:43:40.737Z,6.61
2017-03-26T01:44:50.274Z,6.72
2017-03-26T01:45:59.490Z,6.64
2017-03-26T01:47:08.383Z,6.64
2017-03-26T01:48:17.603Z,6.7
2017-03-26T01:49:27.192Z,6.7
2017-03-26T01:50:36.087Z,6.75
2017-03-26T01:51:45.631Z,6.68
2017-03-26T01:52:55.167Z,6.64
2017-03-26T01:54:04.065Z,6.57
2017-03-26T01:55:12.968Z,6.58
2017-03-26T01:56:21.863Z,6.6
2017-03-26T01:57:30.756Z,6.55
2017-03-26T01:58:39.973Z,6.55
2017-03-26T01:59:48.877Z,6.57
2017-03-26T02:00:57.778Z,6.58
2017-03-26T02:02:07.314Z,6.55
2017-03-26T02:03:16.850Z,6.61
2017-03-26T02:04:26.389Z,6.58
2017-03-26T02:05:35.289Z,6.58
2017-03-26T02:06:44.823Z,6.61
2017-03-26T02:07:54.032Z,6.55
2017-03-26T02:09:02.941Z,6.62
2017-03-26T02:10:12.163Z,6.58
2017-03-26T02:11:21.063Z,6.61
2017-03-26T02:12:30.275Z,6.57
2017-03-26T02:13:39.697Z,6.52
2017-03-26T02:14:48.915Z,6.51
2017-03-26T02:15:58.136Z,6.55
2017-03-26T02:17:07.356Z,6.43
2017-03-26T02:18:16.891Z,6.47
2017-03-26T02:19:26.110Z,6.4
2017-03-26T02:20:35.345Z,6.37
2017-03-26T02:21:44.034Z,6.39
2017-03-26T02:22:52.945Z,6.33
2017-03-26T02:24:02.267Z,6.28
2017-03-26T02:25:11.703Z,6.33
2017-03-26T02:26:21.318Z,6.24
2017-03-26T02:27:30.561Z,6.28
2017-03-26T02:28:40.540Z,6.25
2017-03-26T02:29:49.915Z,6.26
2017-03-26T02:30:58.897Z,6.28
2017-03-26T02:32:07.825Z,6.25
2017-03-26T02:33:17.663Z,6.25
2017-03-26T02:34:27.084Z,6.26
2017-03-26T02:35:36.354Z,6.24
2017-03-26T02:36:46.065Z,6.17
2017-03-26T02:37:55.783Z,6.25
2017-03-26T02:39:05.750Z,6.26
2017-03-26T02:40:15.056Z,6.21
2017-03-26T02:41:24.571Z,6.2
2017-03-26T02:42:34.435Z,6.26
2017-03-26T02:43:43.517Z,6.31
2017-03-26T02:44:52.586Z,6.28
2017-03-26T02:46:02.245Z,6.15
2017-03-26T02:47:11.591Z,6.2
2017-03-26T02:48:21.396Z,6.13
2017-03-26T02:49:30.733Z,6.13
2017-03-26T02:50:40.661Z,6.24
2017-03-26T02:51:50.097Z,6.14
2017-03-26T02:52:59.768Z,6.09
2017-03-26T02:54:09.600Z,6.06
2017-03-26T02:55:19.335Z,6.17
2017-03-26T02:56:28.620Z,6.06
2017-03-26T02:57:37.959Z,6.02
2017-03-26T02:58:46.661Z,6.14
2017-03-26T02:59:56.054Z,5.99
2017-03-26T03:01:04.953Z,6.03
2017-03-26T03:02:14.489Z,6.03
2017-03-26T03:03:23.709Z,6.05
2017-03-26T03:04:32.614Z,5.87
2017-03-26T03:05:42.393Z,6.06
2017-03-26T03:06:51.710Z,5.88
2017-03-26T03:08:01.562Z,6.03
2017-03-26T03:09:10.458Z,5.98
2017-03-26T03:10:19.672Z,5.84
2017-03-26T03:11:28.892Z,5.96
2017-03-26T03:12:38.126Z,5.98
2017-03-26T03:13:47.395Z,5.91
2017-03-26T03:14:56.658Z,5.88
2017-03-26T03:16:06.198Z,5.89
2017-03-26T03:17:15.412Z,5.82
2017-03-26T03:18:24.637Z,5.92
2017-03-26T03:19:33.852Z,5.8
2017-03-26T03:20:42.476Z,5.87
2017-03-26T03:21:52.330Z,5.87
2017-03-26T03:23:01.229Z,5.88
2017-03-26T03:24:10.767Z,5.88
2017-03-26T03:25:19.981Z,5.88
2017-03-26T03:26:29.199Z,5.82
2017-03-26T03:27:38.731Z,5.85
2017-03-26T03:28:47.336Z,5.85
2017-03-26T03:29:56.552Z,5.84
2017-03-26T03:31:05.452Z,5.91
2017-03-26T03:32:14.665Z,5.75
2017-03-26T03:33:23.878Z,5.78
2017-03-26T03:34:32.788Z,5.82
2017-03-26T03:35:42.322Z,5.82
2017-03-26T03:36:51.214Z,5.88
2017-03-26T03:38:00.446Z,5.82
2017-03-26T03:39:09.982Z,5.81
2017-03-26T03:40:18.892Z,5.81
2017-03-26T03:41:27.899Z,5.7
2017-03-26T03:42:37.195Z,5.81
2017-03-26T03:43:46.729Z,5.78
2017-03-26T03:44:55.628Z,5.64
2017-03-26T03:46:04.516Z,5.73
2017-03-26T03:47:13.726Z,5.69
2017-03-26T03:48:22.624Z,5.66
2017-03-26T03:49:31.853Z,5.69
2017-03-26T03:50:41.416Z,5.67
2017-03-26T03:51:50.382Z,5.64
2017-03-26T03:52:59.904Z,5.63
2017-03-26T03:54:09.985Z,5.73
2017-03-26T03:55:19.427Z,5.66
2017-03-26T03:56:29.545Z,5.64
2017-03-26T03:57:39.293Z,5.62
2017-03-26T03:58:48.934Z,5.6
2017-03-26T03:59:58.652Z,5.6
2017-03-26T04:01:08.211Z,5.59
2017-03-26T04:02:17.199Z,5.57
2017-03-26T04:03:25.980Z,5.52
2017-03-26T04:04:35.510Z,5.6
2017-03-26T04:05:44.777Z,5.55
2017-03-26T04:06:54.334Z,5.49
2017-03-26T04:08:03.543Z,5.54
2017-03-26T04:09:12.630Z,5.48
2017-03-26T04:10:22.404Z,5.45
2017-03-26T04:11:31.949Z,5.36
2017-03-26T04:12:40.571Z,5.42
2017-03-26T04:13:49.790Z,5.44
2017-03-26T04:14:58.689Z,5.44
2017-03-26T04:16:08.230Z,5.37
2017-03-26T04:17:17.122Z,5.39
2017-03-26T04:18:25.712Z,5.36
2017-03-26T04:19:34.935Z,5.3
2017-03-26T04:20:43.831Z,5.33
2017-03-26T04:21:52.720Z,5.39
2017-03-26T04:23:01.623Z,5.34
2017-03-26T04:24:10.523Z,5.28
2017-03-26T04:25:19.749Z,5.34
2017-03-26T04:26:28.962Z,5.3
2017-03-26T04:27:38.176Z,5.41
2017-03-26T04:28:47.078Z,5.41
2017-03-26T04:29:56.310Z,5.41
2017-03-26T04:31:05.529Z,5.41
2017-03-26T04:32:14.424Z,5.45
2017-03-26T04:33:23.321Z,5.49
2017-03-26T04:34:32.538Z,5.52
2017-03-26T04:35:41.440Z,5.59
2017-03-26T04:36:50.657Z,5.51
2017-03-26T04:38:00.502Z,5.52
2017-03-26T04:39:09.502Z,5.55
2017-03-26T04:40:18.402Z,5.55
2017-03-26T04:41:27.302Z,5.45
2017-03-26T04:42:36.514Z,5.57
2017-03-26T04:43:45.097Z,5.6
2017-03-26T04:44:54.006Z,5.66
2017-03-26T04:46:03.312Z,5.66
2017-03-26T04:47:13.312Z,5.62
2017-03-26T04:48:22.232Z,5.66
2017-03-26T04:49:31.451Z,5.67
2017-03-26T04:50:40.040Z,5.7
2017-03-26T04:51:49.251Z,5.7
2017-03-26T04:52:58.462Z,5.69
2017-03-26T04:54:08.318Z,5.66
2017-03-26T04:55:17.533Z,5.77
2017-03-26T04:56:26.427Z,5.82
2017-03-26T04:57:35.953Z,5.78
2017-03-26T04:58:45.173Z,5.78
2017-03-26T04:59:54.714Z,5.73
2017-03-26T05:01:03.623Z,5.72
2017-03-26T05:02:12.831Z,5.78
2017-03-26T05:03:22.376Z,5.85
2017-03-26T05:04:31.914Z,5.84
2017-03-26T05:05:40.488Z,5.82
2017-03-26T05:06:50.016Z,5.87
2017-03-26T05:07:59.551Z,5.82
2017-03-26T05:09:09.082Z,5.82
2017-03-26T05:10:17.660Z,5.92
2017-03-26T05:11:26.875Z,5.96
2017-03-26T05:12:36.731Z,5.84
2017-03-26T05:13:46.200Z,5.88
2017-03-26T05:14:55.428Z,5.91
2017-03-26T05:16:04.648Z,5.82
2017-03-26T05:17:13.902Z,5.98
2017-03-26T05:18:23.165Z,5.95
2017-03-26T05:19:32.707Z,5.95
2017-03-26T05:20:41.950Z,5.92
2017-03-26T05:21:51.797Z,5.92
2017-03-26T05:23:00.702Z,5.96
2017-03-26T05:24:10.269Z,5.99
2017-03-26T05:25:19.489Z,6.02
2017-03-26T05:26:29.022Z,6
2017-03-26T05:27:38.559Z,5.96
2017-03-26T05:28:47.461Z,6.03
2017-03-26T05:29:56.688Z,6.09
2017-03-26T05:31:05.911Z,6.06
2017-03-26T05:32:15.126Z,6.13
2017-03-26T05:33:23.704Z,6.15
2017-03-26T05:34:32.602Z,6.07
2017-03-26T05:35:42.443Z,6.17
2017-03-26T05:36:51.343Z,6.14
2017-03-26T05:38:00.244Z,6.24
2017-03-26T05:39:09.461Z,6.14
2017-03-26T05:40:18.357Z,6.2
2017-03-26T05:41:27.256Z,6.25
2017-03-26T05:42:36.471Z,6.29
2017-03-26T05:43:46.005Z,6.17
2017-03-26T05:44:55.542Z,6.25
2017-03-26T05:46:04.451Z,6.2
2017-03-26T05:47:13.987Z,6.29
2017-03-26T05:48:23.198Z,6.28
2017-03-26T05:49:32.099Z,6.2
2017-03-26T05:50:41.319Z,6.25
2017-03-26T05:51:50.215Z,6.31
2017-03-26T05:52:58.802Z,6.29
2017-03-26T05:54:08.333Z,6.39
2017-03-26T05:55:17.553Z,6.4
2017-03-26T05:56:26.129Z,6.36
2017-03-26T05:57:35.339Z,6.39
2017-03-26T05:58:45.242Z,6.47
2017-03-26T05:59:54.135Z,6.43
2017-03-26T06:01:03.278Z,6.43
2017-03-26T06:02:12.174Z,6.47
2017-03-26T06:03:20.760Z,6.39
2017-03-26T06:04:29.348Z,6.44
2017-03-26T06:05:38.244Z,6.37
2017-03-26T06:06:47.146Z,6.51
2017-03-26T06:07:55.726Z,6.55
2017-03-26T06:09:04.950Z,6.52
2017-03-26T06:10:14.487Z,6.49
2017-03-26T06:11:23.705Z,6.52
2017-03-26T06:12:33.552Z,6.6
2017-03-26T06:13:42.134Z,6.64
2017-03-26T06:14:51.353Z,6.6
2017-03-26T06:16:00.252Z,6.64
2017-03-26T06:17:09.780Z,6.57
2017-03-26T06:18:18.682Z,6.61
2017-03-26T06:19:27.579Z,6.68
2017-03-26T06:20:36.474Z,6.57
2017-03-26T06:21:45.944Z,6.55
2017-03-26T06:22:55.481Z,6.61
2017-03-26T06:24:04.377Z,6.73
2017-03-26T06:25:13.913Z,6.7
2017-03-26T06:26:22.809Z,6.79
2017-03-26T06:27:32.660Z,6.78
2017-03-26T06:28:41.874Z,6.78
2017-03-26T06:29:51.406Z,6.72
2017-03-26T06:31:00.306Z,6.76
2017-03-26T06:32:09.768Z,6.86
2017-03-26T06:33:18.986Z,6.78
2017-03-26T06:34:27.892Z,6.76
2017-03-26T06:35:36.478Z,6.86
2017-03-26T06:36:45.690Z,6.79
2017-03-26T06:37:54.588Z,6.79
2017-03-26T06:39:03.809Z,6.88
2017-03-26T06:40:12.709Z,6.9
2017-03-26T06:41:22.234Z,6.97
2017-03-26T06:42:31.130Z,6.86
2017-03-26T06:43:40.350Z,6.85
2017-03-26T06:44:49.250Z,6.9
2017-03-26T06:45:58.144Z,6.85
2017-03-26T06:47:07.676Z,6.85
2017-03-26T06:48:16.581Z,6.95
2017-03-26T06:49:25.814Z,6.88
2017-03-26T06:50:35.345Z,7.03
2017-03-26T06:51:44.246Z,6.97
2017-03-26T06:52:53.457Z,6.95
2017-03-26T06:54:02.996Z,7.01
2017-03-26T06:55:11.901Z,7.01
2017-03-26T06:56:21.438Z,7.16
2017-03-26T06:57:30.014Z,7.08
2017-03-26T06:58:38.603Z,7.09
2017-03-26T06:59:48.142Z,7.12
2017-03-26T07:00:57.357Z,7.12
2017-03-26T07:02:06.886Z,7.15
2017-03-26T07:03:16.414Z,7.13
2017-03-26T07:04:25.626Z,7.19
2017-03-26T07:05:35.164Z,7.26
2017-03-26T07:06:44.381Z,7.21
2017-03-26T07:07:53.287Z,7.23
2017-03-26T07:09:02.502Z,7.3
2017-03-26T07:10:11.719Z,7.19
2017-03-26T07:11:21.249Z,7.33
2017-03-26T07:12:30.464Z,7.33
2017-03-26T07:13:40.251Z,7.37
2017-03-26T07:14:49.471Z,7.37
2017-03-26T07:15:58.688Z,7.37
2017-03-26T07:17:08.244Z,7.45
2017-03-26T07:18:17.148Z,7.39
2017-03-26T07:19:26.365Z,7.44
2017-03-26T07:20:35.580Z,7.49
2017-03-26T07:21:44.792Z,7.54
2017-03-26T07:22:53.696Z,7.54
2017-03-26T07:24:02.935Z,7.54
2017-03-26T07:25:11.837Z,7.54
2017-03-26T07:26:21.055Z,7.68
2017-03-26T07:27:29.949Z,7.56
2017-03-26T07:28:38.848Z,7.67
2017-03-26T07:29:47.430Z,7.74
2017-03-26T07:30:56.019Z,7.8
2017-03-26T07:32:04.917Z,7.89
2017-03-26T07:33:14.452Z,7.83
2017-03-26T07:34:23.352Z,7.96
2017-03-26T07:35:32.251Z,7.89
2017-03-26T07:36:40.833Z,7.93
2017-03-26T07:37:50.053Z,8.1
2017-03-26T07:38:58.954Z,7.99
2017-03-26T07:40:08.173Z,8.01
2017-03-26T07:41:17.394Z,8.11
2017-03-26T07:42:26.288Z,8.14
2017-03-26T07:43:35.827Z,8.25
2017-03-26T07:44:44.729Z,8.24
2017-03-26T07:45:53.636Z,8.25
2017-03-26T07:47:02.873Z,8.34
2017-03-26T07:48:12.088Z,8.35
2017-03-26T07:49:20.987Z,8.36
2017-03-26T07:50:29.923Z,8.26
2017-03-26T07:51:39.145Z,8.4
2017-03-26T07:52:48.045Z,8.42
2017-03-26T07:53:56.943Z,8.4
2017-03-26T07:55:05.524Z,8.42
2017-03-26T07:56:14.747Z,8.53
2017-03-26T07:57:23.331Z,8.54
2017-03-26T07:58:32.232Z,8.53
2017-03-26T07:59:41.134Z,8.5
2017-03-26T08:00:50.355Z,8.58
2017-03-26T08:01:58.939Z,8.57
2017-03-26T08:03:07.520Z,8.65
2017-03-26T08:04:16.742Z,8.77
2017-03-26T08:05:25.960Z,8.74
2017-03-26T08:06:35.174Z,8.72
2017-03-26T08:07:44.077Z,8.77
2017-03-26T08:08:53.618Z,8.87
2017-03-26T08:10:02.527Z,8.86
2017-03-26T08:11:11.428Z,8.9
2017-03-26T08:12:20.642Z,8.95
2017-03-26T08:13:29.230Z,8.95
2017-03-26T08:14:38.132Z,8.97
2017-03-26T08:15:46.960Z,9.04
2017-03-26T08:16:56.182Z,9.12
2017-03-26T08:18:05.412Z,9.14
2017-03-26T08:19:14.630Z,9.23
2017-03-26T08:20:23.854Z,9.14
2017-03-26T08:21:32.749Z,9.29
2017-03-26T08:22:41.650Z,9.14
2017-03-26T08:23:50.862Z,9.26
2017-03-26T08:24:59.766Z,9.29
2017-03-26T08:26:08.672Z,9.38
2017-03-26T08:27:17.893Z,9.34
2017-03-26T08:28:26.791Z,9.38
2017-03-26T08:29:36.334Z,9.55
2017-03-26T08:30:45.228Z,9.5
2017-03-26T08:31:54.763Z,9.52
2017-03-26T08:33:03.663Z,9.63
2017-03-26T08:34:13.202Z,9.63
2017-03-26T08:35:22.417Z,9.64
2017-03-26T08:36:31.317Z,9.59
2017-03-26T08:37:40.866Z,9.67
2017-03-26T08:38:49.455Z,9.64
2017-03-26T08:39:58.994Z,9.75
2017-03-26T08:41:07.905Z,9.63
2017-03-26T08:42:16.805Z,9.64
2017-03-26T08:43:26.027Z,9.7
2017-03-26T08:44:34.927Z,9.63
2017-03-26T08:45:44.467Z,9.66
2017-03-26T08:46:53.690Z,9.64
2017-03-26T08:48:02.906Z,9.78
2017-03-26T08:49:12.446Z,9.63
2017-03-26T08:50:21.350Z,9.67
2017-03-26T08:51:30.250Z,9.7
2017-03-26T08:52:39.786Z,9.66
2017-03-26T08:53:49.014Z,9.77
2017-03-26T08:54:57.922Z,9.89
2017-03-26T08:56:06.825Z,9.95
2017-03-26T08:57:16.356Z,10.02
2017-03-26T08:58:25.260Z,10.13
2017-03-26T08:59:34.495Z,10.07
2017-03-26T09:00:43.716Z,10.07
2017-03-26T09:01:52.940Z,10.07
2017-03-26T09:03:01.843Z,10
2017-03-26T09:04:10.752Z,10.02
2017-03-26T09:05:20.288Z,10.14
2017-03-26T09:06:29.433Z,10.13
2017-03-26T09:07:38.324Z,10.05
2017-03-26T09:08:47.233Z,10.08
2017-03-26T09:09:56.781Z,10.11
2017-03-26T09:11:05.366Z,10.1
2017-03-26T09:12:14.586Z,10.17
2017-03-26T09:13:23.813Z,10.23
2017-03-26T09:14:32.720Z,10.2
2017-03-26T09:15:41.622Z,10.33
2017-03-26T09:16:50.459Z,10.32
2017-03-26T09:17:59.358Z,10.44
2017-03-26T09:19:07.961Z,10.41
2017-03-26T09:20:16.861Z,10.47
2017-03-26T09:21:26.403Z,10.52
2017-03-26T09:22:35.627Z,10.39
2017-03-26T09:23:44.224Z,10.38
2017-03-26T09:24:53.455Z,10.39
2017-03-26T09:26:02.040Z,10.35
2017-03-26T09:27:11.141Z,10.26
2017-03-26T09:28:20.351Z,10.21
2017-03-26T09:29:29.257Z,10.23
2017-03-26T09:30:38.473Z,10.23
2017-03-26T09:31:47.692Z,10.31
2017-03-26T09:32:56.277Z,10.39
2017-03-26T09:34:05.497Z,10.25
2017-03-26T09:35:14.396Z,10.25
2017-03-26T09:36:23.936Z,10.23
2017-03-26T09:37:33.161Z,10.1
2017-03-26T09:38:41.747Z,10.03
2017-03-26T09:39:50.649Z,10
2017-03-26T09:41:00.181Z,10.08
2017-03-26T09:42:09.400Z,10.23
2017-03-26T09:43:18.305Z,10.21
2017-03-26T09:44:27.211Z,10.25
2017-03-26T09:45:36.425Z,10.2
2017-03-26T09:46:46.283Z,10.18
2017-03-26T09:47:55.511Z,10.28
2017-03-26T09:49:05.048Z,10.26
2017-03-26T09:50:14.589Z,10.23
2017-03-26T09:51:23.489Z,10.23
2017-03-26T09:52:33.027Z,10.18
2017-03-26T09:53:42.569Z,10.11
2017-03-26T09:54:51.794Z,10.07
2017-03-26T09:56:01.016Z,10.05
2017-03-26T09:57:09.605Z,10.03
2017-03-26T09:58:18.816Z,10.11
2017-03-26T09:59:27.715Z,10.28
2017-03-26T10:00:36.619Z,10.2
2017-03-26T10:01:45.531Z,10.35
2017-03-26T10:02:55.386Z,10.42
2017-03-26T10:04:04.291Z,10.49
2017-03-26T10:05:13.515Z,10.49
2017-03-26T10:06:22.415Z,10.57
2017-03-26T10:07:31.309Z,10.55
2017-03-26T10:08:39.901Z,10.54
2017-03-26T10:09:49.439Z,10.59
2017-03-26T10:10:58.662Z,10.61
2017-03-26T10:12:07.244Z,10.58
2017-03-26T10:13:16.409Z,10.58
2017-03-26T10:14:25.948Z,10.57
2017-03-26T10:15:34.848Z,10.47
2017-03-26T10:16:43.802Z,10.55
2017-03-26T10:17:53.024Z,10.73
2017-03-26T10:19:01.926Z,10.77
2017-03-26T10:20:11.149Z,10.83
2017-03-26T10:21:20.047Z,10.85
2017-03-26T10:22:28.949Z,10.92
2017-03-26T10:23:38.170Z,10.92
2017-03-26T10:24:47.080Z,10.95
2017-03-26T10:25:55.980Z,11.02
2017-03-26T10:27:04.883Z,10.95
2017-03-26T10:28:14.145Z,11.03
2017-03-26T10:29:23.376Z,10.97
2017-03-26T10:30:32.279Z,11.08
2017-03-26T10:31:42.127Z,11.02
2017-03-26T10:32:50.716Z,11.05
2017-03-26T10:33:59.625Z,11.2
2017-03-26T10:35:09.096Z,11.21
2017-03-26T10:36:17.688Z,11.27
2017-03-26T10:37:27.220Z,11.21
2017-03-26T10:38:35.808Z,11.2
2017-03-26T10:39:44.397Z,11.27
2017-03-26T10:40:53.613Z,11.27
2017-03-26T10:42:02.836Z,11.27
2017-03-26T10:43:12.068Z,11.24
2017-03-26T10:44:20.652Z,11.28
2017-03-26T10:45:29.237Z,11.41
2017-03-26T10:46:38.450Z,11.38
2017-03-26T10:47:47.350Z,11.51
2017-03-26T10:48:56.250Z,11.39
2017-03-26T10:50:05.785Z,11.42
2017-03-26T10:51:15.633Z,11.43
2017-03-26T10:52:24.861Z,11.35
2017-03-26T10:53:34.075Z,11.46
2017-03-26T10:54:43.611Z,11.43
2017-03-26T10:55:52.548Z,11.51
2017-03-26T10:57:01.134Z,11.61
2017-03-26T10:58:10.989Z,11.59
2017-03-26T10:59:20.528Z,11.67
2017-03-26T11:00:29.441Z,11.59
2017-03-26T11:01:39.291Z,11.63
2017-03-26T11:02:48.192Z,11.59
2017-03-26T11:03:57.098Z,11.68
2017-03-26T11:05:06.468Z,11.63
2017-03-26T11:06:15.055Z,11.49
2017-03-26T11:07:23.954Z,11.51
2017-03-26T11:08:33.493Z,11.52
2017-03-26T11:09:43.033Z,11.6
2017-03-26T11:10:52.255Z,11.63
2017-03-26T11:12:01.154Z,11.68
2017-03-26T11:13:10.379Z,11.76
2017-03-26T11:14:19.604Z,11.81
2017-03-26T11:15:28.508Z,11.79
2017-03-26T11:16:37.727Z,11.76
2017-03-26T11:17:47.262Z,11.79
2017-03-26T11:18:56.183Z,11.79
2017-03-26T11:20:05.402Z,11.82
2017-03-26T11:21:13.983Z,11.84
2017-03-26T11:22:23.514Z,11.89
2017-03-26T11:23:32.416Z,11.95
2017-03-26T11:24:41.003Z,11.95
2017-03-26T11:25:49.903Z,11.95
2017-03-26T11:26:59.160Z,11.86
2017-03-26T11:28:08.379Z,11.98
2017-03-26T11:29:17.606Z,11.94
2017-03-26T11:30:26.838Z,12.04
2017-03-26T11:31:35.752Z,11.97
2017-03-26T11:32:44.976Z,12.03
2017-03-26T11:33:54.519Z,12.07
2017-03-26T11:35:03.421Z,12
2017-03-26T11:36:12.321Z,11.98
2017-03-26T11:37:20.907Z,12.07
2017-03-26T11:38:29.816Z,12.05
2017-03-26T11:39:39.033Z,12.13
2017-03-26T11:40:47.617Z,12.08
2017-03-26T11:41:56.527Z,12.08
2017-03-26T11:43:05.433Z,12.08
2017-03-26T11:44:14.017Z,12.01
2017-03-26T11:45:23.547Z,12.16
2017-03-26T11:46:32.449Z,12.2
2017-03-26T11:47:41.670Z,12.11
2017-03-26T11:48:50.570Z,12.16
2017-03-26T11:49:59.152Z,12.2
2017-03-26T11:51:08.373Z,12.26
2017-03-26T11:52:17.903Z,12.2
2017-03-26T11:53:27.122Z,12.25
2017-03-26T11:54:35.709Z,12.28
2017-03-26T11:55:44.930Z,12.38
2017-03-26T11:56:54.150Z,12.41
2017-03-26T11:58:03.691Z,12.4
2017-03-26T11:59:12.943Z,12.43
2017-03-26T12:00:22.167Z,12.51
2017-03-26T12:01:31.387Z,12.45
2017-03-26T12:02:39.971Z,12.43
2017-03-26T12:03:48.571Z,12.4
2017-03-26T12:04:57.167Z,12.41
2017-03-26T12:06:06.394Z,12.43
2017-03-26T12:07:15.717Z,12.38
2017-03-26T12:08:24.621Z,12.51
2017-03-26T12:09:33.845Z,12.61
2017-03-26T12:10:43.384Z,12.61
2017-03-26T12:11:52.615Z,12.56
2017-03-26T12:13:01.835Z,12.73
2017-03-26T12:14:11.370Z,12.66
2017-03-26T12:15:20.603Z,12.7
2017-03-26T12:16:29.512Z,12.66
2017-03-26T12:17:38.727Z,12.66
2017-03-26T12:18:47.958Z,12.7
2017-03-26T12:19:56.551Z,12.62
2017-03-26T12:21:05.453Z,12.66
2017-03-26T12:22:14.036Z,12.74
2017-03-26T12:23:23.255Z,12.76
2017-03-26T12:24:32.473Z,12.74
2017-03-26T12:25:41.691Z,12.8
2017-03-26T12:26:50.596Z,12.73
2017-03-26T12:27:59.501Z,12.74
2017-03-26T12:29:09.040Z,12.76
2017-03-26T12:30:18.119Z,12.94
2017-03-26T12:31:26.832Z,12.91
2017-03-26T12:32:36.046Z,12.91
2017-03-26T12:33:45.262Z,12.88
2017-03-26T12:34:54.172Z,12.96
2017-03-26T12:36:03.709Z,12.98
2017-03-26T12:37:13.249Z,12.99
2017-03-26T12:38:22.471Z,13.03
2017-03-26T12:39:31.703Z,13.02
2017-03-26T12:40:40.612Z,13.11
2017-03-26T12:41:49.837Z,13.03
2017-03-26T12:42:58.744Z,13.06
2017-03-26T12:44:07.646Z,13.06
2017-03-26T12:45:16.863Z,13.03
2017-03-26T12:46:25.439Z,13.16
2017-03-26T12:47:34.333Z,13.17
2017-03-26T12:48:43.888Z,13.13
2017-03-26T12:49:53.479Z,13.2
2017-03-26T12:51:02.703Z,13.16
2017-03-26T12:52:11.923Z,13.11
2017-03-26T12:53:21.148Z,13.16
2017-03-26T12:54:30.689Z,13.16
2017-03-26T12:55:39.589Z,13.29
2017-03-26T12:56:48.808Z,13.28
2017-03-26T12:57:57.714Z,13.35
2017-03-26T12:59:06.619Z,13.42
2017-03-26T13:00:15.523Z,13.42
2017-03-26T13:01:25.065Z,13.35
2017-03-26T13:02:34.292Z,13.42
2017-03-26T13:03:43.835Z,13.45
2017-03-26T13:04:53.397Z,13.48
2017-03-26T13:06:01.989Z,13.48
2017-03-26T13:07:10.894Z,13.54
2017-03-26T13:08:19.802Z,13.53
2017-03-26T13:09:28.718Z,13.55
2017-03-26T13:10:37.939Z,13.6
2017-03-26T13:11:46.522Z,13.58
2017-03-26T13:12:55.741Z,13.6
2017-03-26T13:14:04.791Z,13.58
2017-03-26T13:15:14.013Z,13.6
2017-03-26T13:16:22.914Z,13.72
2017-03-26T13:17:31.878Z,13.63
2017-03-26T13:18:41.630Z,13.65
2017-03-26T13:19:50.950Z,13.73
2017-03-26T13:21:00.724Z,13.65
2017-03-26T13:22:09.396Z,13.72
2017-03-26T13:23:18.934Z,13.78
2017-03-26T13:24:28.728Z,13.76
2017-03-26T13:25:37.976Z,13.7
2017-03-26T13:26:46.878Z,13.73
2017-03-26T13:27:56.419Z,13.73
2017-03-26T13:29:06.312Z,13.72
2017-03-26T13:30:14.992Z,13.73
2017-03-26T13:31:24.467Z,13.83
2017-03-26T13:32:34.503Z,13.78
2017-03-26T13:33:44.390Z,13.87
2017-03-26T13:34:53.615Z,13.84
2017-03-26T13:36:03.148Z,13.81
2017-03-26T13:37:12.052Z,13.91
2017-03-26T13:38:20.640Z,13.99
2017-03-26T13:39:30.207Z,14.02
2017-03-26T13:40:39.437Z,13.99
2017-03-26T13:41:49.601Z,13.94
2017-03-26T13:42:58.546Z,14.06
2017-03-26T13:44:07.885Z,14.08
2017-03-26T13:45:17.260Z,14.2
2017-03-26T13:46:26.930Z,14.2
2017-03-26T13:47:35.570Z,14.24
2017-03-26T13:48:44.844Z,14.21
2017-03-26T13:49:53.756Z,14.3
2017-03-26T13:51:03.351Z,14.24
2017-03-26T13:52:12.407Z,14.31
2017-03-26T13:53:21.339Z,14.42
2017-03-26T13:54:30.369Z,14.33
2017-03-26T13:55:39.729Z,14.42
2017-03-26T13:56:48.987Z,14.52
2017-03-26T13:57:57.580Z,14.52
2017-03-26T13:59:06.830Z,14.49
2017-03-26T14:00:16.449Z,14.48
2017-03-26T14:01:25.344Z,14.45
2017-03-26T14:02:34.563Z,14.59
2017-03-26T14:03:44.117Z,14.49
2017-03-26T14:04:52.705Z,14.52
2017-03-26T14:06:02.646Z,14.52
2017-03-26T14:07:11.563Z,14.56
2017-03-26T14:08:21.109Z,14.53
2017-03-26T14:09:30.040Z,14.53
2017-03-26T14:10:39.708Z,14.61
2017-03-26T14:11:48.650Z,14.59
2017-03-26T14:12:58.197Z,14.57
2017-03-26T14:14:07.105Z,14.53
2017-03-26T14:15:16.047Z,14.71
2017-03-26T14:16:24.628Z,14.67
2017-03-26T14:17:33.998Z,14.63
2017-03-26T14:18:42.915Z,14.7
2017-03-26T14:19:51.910Z,14.63
2017-03-26T14:21:00.680Z,14.67
2017-03-26T14:22:10.425Z,14.79
2017-03-26T14:23:19.330Z,14.7
2017-03-26T14:24:28.239Z,14.7
2017-03-26T14:25:37.782Z,14.69
2017-03-26T14:26:46.711Z,14.66
2017-03-26T14:27:55.652Z,14.71
2017-03-26T14:29:04.293Z,14.7
2017-03-26T14:30:13.579Z,14.69
2017-03-26T14:31:22.191Z,14.79
2017-03-26T14:32:31.133Z,14.83
2017-03-26T14:33:40.102Z,14.71
2017-03-26T14:34:49.378Z,14.9
2017-03-26T14:35:58.290Z,14.85
2017-03-26T14:37:07.191Z,14.79
2017-03-26T14:38:16.410Z,14.85
2017-03-26T14:39:25.630Z,14.77
2017-03-26T14:40:34.532Z,14.74
2017-03-26T14:41:43.485Z,14.7
2017-03-26T14:42:53.029Z,14.79
2017-03-26T14:44:02.282Z,14.86
2017-03-26T14:45:12.072Z,14.77
2017-03-26T14:46:20.985Z,14.82
2017-03-26T14:47:30.857Z,14.75
2017-03-26T14:48:39.442Z,14.86
2017-03-26T14:49:48.989Z,14.75
2017-03-26T14:50:58.538Z,14.75
2017-03-26T14:52:07.444Z,14.87
2017-03-26T14:53:16.356Z,14.8
2017-03-26T14:54:25.261Z,14.8
2017-03-26T14:55:34.803Z,14.83
2017-03-26T14:56:43.714Z,14.8
2017-03-26T14:57:52.622Z,14.79
2017-03-26T14:59:01.879Z,14.94
2017-03-26T15:00:10.782Z,14.87
2017-03-26T15:01:19.689Z,14.93
2017-03-26T15:02:29.225Z,14.8
2017-03-26T15:03:38.129Z,14.97
2017-03-26T15:04:47.039Z,14.82
2017-03-26T15:05:55.634Z,14.9
2017-03-26T15:07:04.536Z,14.89
2017-03-26T15:08:13.760Z,14.82
2017-03-26T15:09:22.987Z,14.8
2017-03-26T15:10:31.889Z,14.87
2017-03-26T15:11:40.476Z,14.87